createdAt,value
2017-11-27T00:02:11.166Z,5.38
2017-11-27T00:04:38.689Z,5.35
2017-11-27T00:07:06.202Z,5.38
2017-11-27T00:09:33.725Z,5.30
2017-11-27T00:12:01.238Z,5.35
2017-11-27T00:14:28.745Z,5.30
2017-11-27T00:16:56.277Z,5.32
2017-11-27T00:19:23.791Z,5.32
2017-11-27T00:21:51.311Z,5.34
2017-11-27T00:24:18.828Z,5.32
2017-11-27T00:26:46.344Z,5.33
2017-11-27T00:29:13.869Z,5.34
2017-11-27T00:31:41.383Z,5.40
2017-11-27T00:34:08.907Z,5.38
2017-11-27T00:36:36.420Z,5.40
2017-11-27T00:39:03.948Z,5.42
2017-11-27T00:41:31.462Z,5.40
2017-11-27T00:43:58.978Z,5.41
2017-11-27T00:46:26.489Z,5.39
2017-11-27T00:48:54.003Z,5.44
2017-11-27T00:51:21.526Z,5.42
2017-11-27T00:53:49.038Z,5.39
2017-11-27T00:56:28.246Z,5.39
2017-11-27T00:58:55.792Z,5.36
2017-11-27T01:01:23.348Z,5.37
2017-11-27T01:03:50.886Z,5.39
2017-11-27T01:06:18.403Z,5.37
2017-11-27T01:08:45.932Z,5.40
2017-11-27T01:11:13.990Z,5.40
2017-11-27T01:13:41.503Z,5.38
2017-11-27T01:16:09.034Z,5.36
2017-11-27T01:18:36.557Z,5.40
2017-11-27T01:21:04.079Z,5.46
2017-11-27T01:23:31.593Z,5.42
2017-11-27T01:25:59.111Z,5.36
2017-11-27T01:28:26.625Z,5.37
2017-11-27T01:30:54.145Z,5.41
2017-11-27T01:33:21.658Z,5.36
2017-11-27T01:35:49.176Z,5.36
2017-11-27T01:38:16.690Z,5.36
2017-11-27T01:40:44.206Z,5.36
2017-11-27T01:43:11.720Z,5.39
2017-11-27T01:45:39.238Z,5.40
2017-11-27T01:48:06.755Z,5.39
2017-11-27T01:50:34.268Z,5.39
2017-11-27T01:53:01.783Z,5.41
2017-11-27T01:55:29.303Z,5.39
2017-11-27T01:57:56.828Z,5.39
2017-11-27T02:00:24.361Z,5.38
2017-11-27T02:02:51.879Z,5.37
2017-11-27T02:05:19.399Z,5.36
2017-11-27T02:07:46.926Z,5.34
2017-11-27T02:10:14.440Z,5.31
2017-11-27T02:12:41.961Z,5.33
2017-11-27T02:15:09.480Z,5.32
2017-11-27T02:17:36.996Z,5.38
2017-11-27T02:20:04.523Z,5.33
2017-11-27T02:22:32.035Z,5.35
2017-11-27T02:24:59.543Z,5.38
2017-11-27T02:27:27.077Z,5.32
2017-11-27T02:29:54.595Z,5.36
2017-11-27T02:32:22.107Z,5.36
2017-11-27T02:34:49.624Z,5.33
2017-11-27T02:37:17.139Z,5.34
2017-11-27T02:39:44.655Z,5.33
2017-11-27T02:42:12.170Z,5.36
2017-11-27T02:44:39.683Z,5.33
2017-11-27T02:47:07.207Z,5.36
2017-11-27T02:49:34.730Z,5.35
2017-11-27T02:52:02.266Z,5.32
2017-11-27T02:54:29.787Z,5.32
2017-11-27T02:56:57.294Z,5.31
2017-11-27T02:59:24.806Z,5.31
2017-11-27T03:01:52.322Z,5.27
2017-11-27T03:04:19.839Z,5.24
2017-11-27T03:06:47.355Z,5.21
2017-11-27T03:09:14.873Z,5.18
2017-11-27T03:11:42.391Z,5.16
2017-11-27T03:14:09.904Z,5.18
2017-11-27T03:16:37.421Z,5.18
2017-11-27T03:19:04.939Z,5.15
2017-11-27T03:21:32.451Z,5.13
2017-11-27T03:23:59.969Z,5.15
2017-11-27T03:26:27.498Z,5.16
2017-11-27T03:28:55.024Z,5.15
2017-11-27T03:31:22.553Z,5.17
2017-11-27T03:33:50.068Z,5.16
2017-11-27T03:36:17.579Z,5.16
2017-11-27T03:38:45.101Z,5.14
2017-11-27T03:41:12.613Z,5.16
2017-11-27T03:43:40.131Z,5.14
2017-11-27T03:46:07.647Z,5.15
2017-11-27T03:48:35.166Z,5.17
2017-11-27T03:51:02.682Z,5.18
2017-11-27T03:53:30.200Z,5.18
2017-11-27T03:55:57.719Z,5.19
2017-11-27T03:58:25.237Z,5.22
2017-11-27T04:00:52.751Z,5.18
2017-11-27T04:03:20.263Z,5.19
2017-11-27T04:05:47.799Z,5.18
2017-11-27T04:08:15.320Z,5.16
2017-11-27T04:10:42.834Z,5.06
2017-11-27T04:13:10.342Z,5.11
2017-11-27T04:15:37.850Z,5.10
2017-11-27T04:18:05.377Z,5.03
2017-11-27T04:20:32.899Z,5.00
2017-11-27T04:23:00.424Z,5.00
2017-11-27T04:25:27.946Z,5.03
2017-11-27T04:27:55.470Z,4.99
2017-11-27T04:30:22.992Z,5.04
2017-11-27T04:32:50.510Z,5.03
2017-11-27T04:35:18.022Z,5.05
2017-11-27T04:37:45.543Z,5.08
2017-11-27T04:40:13.065Z,5.06
2017-11-27T04:42:40.573Z,5.08
2017-11-27T04:45:08.079Z,5.08
2017-11-27T04:47:35.596Z,5.13
2017-11-27T04:50:03.120Z,5.07
2017-11-27T04:52:30.634Z,5.03
2017-11-27T04:54:58.160Z,4.98
2017-11-27T04:57:25.685Z,4.90
2017-11-27T04:59:53.231Z,4.89
2017-11-27T05:02:20.745Z,4.81
2017-11-27T05:04:48.260Z,4.79
2017-11-27T05:07:15.780Z,4.86
2017-11-27T05:09:43.302Z,4.83
2017-11-27T05:12:10.827Z,4.81
2017-11-27T05:14:38.355Z,4.81
2017-11-27T05:17:05.872Z,4.79
2017-11-27T05:19:33.388Z,4.75
2017-11-27T05:22:00.905Z,4.74
2017-11-27T05:24:28.439Z,4.62
2017-11-27T05:26:55.962Z,4.69
2017-11-27T05:29:23.486Z,4.56
2017-11-27T05:31:51.007Z,4.57
2017-11-27T05:34:18.524Z,4.51
2017-11-27T05:36:46.040Z,4.53
2017-11-27T05:39:13.553Z,4.49
2017-11-27T05:41:41.066Z,4.49
2017-11-27T05:44:08.575Z,4.40
2017-11-27T05:46:36.089Z,4.34
2017-11-27T05:49:03.598Z,4.29
2017-11-27T05:51:31.108Z,4.25
2017-11-27T05:53:58.627Z,4.20
2017-11-27T05:56:26.165Z,4.14
2017-11-27T05:58:53.683Z,4.08
2017-11-27T06:01:21.194Z,4.04
2017-11-27T06:03:48.699Z,3.95
2017-11-27T06:06:16.233Z,3.88
2017-11-27T06:08:43.747Z,3.82
2017-11-27T06:11:11.265Z,3.81
2017-11-27T06:13:38.775Z,3.74
2017-11-27T06:16:06.299Z,3.73
2017-11-27T06:18:33.824Z,3.65
2017-11-27T06:21:01.337Z,3.60
2017-11-27T06:23:28.857Z,3.59
2017-11-27T06:25:56.379Z,3.53
2017-11-27T06:28:23.891Z,3.48
2017-11-27T06:30:51.402Z,3.44
2017-11-27T06:33:18.929Z,3.39
2017-11-27T06:35:46.467Z,3.38
2017-11-27T06:38:13.984Z,3.33
2017-11-27T06:40:41.503Z,3.32
2017-11-27T06:43:09.027Z,3.26
2017-11-27T06:45:36.547Z,3.28
2017-11-27T06:48:04.061Z,3.23
2017-11-27T06:50:31.582Z,3.19
2017-11-27T06:52:59.098Z,3.19
2017-11-27T06:55:26.614Z,3.16
2017-11-27T06:57:54.128Z,3.18
2017-11-27T07:00:21.639Z,3.15
2017-11-27T07:02:49.168Z,3.18
2017-11-27T07:05:16.687Z,3.17
2017-11-27T07:07:44.213Z,3.18
2017-11-27T07:10:11.730Z,3.19
2017-11-27T07:12:39.262Z,3.22
2017-11-27T07:15:06.787Z,3.19
2017-11-27T07:17:34.316Z,3.21
2017-11-27T07:20:01.831Z,3.22
2017-11-27T07:22:29.347Z,3.27
2017-11-27T07:24:56.866Z,3.29
2017-11-27T07:27:24.385Z,3.38
2017-11-27T07:29:51.909Z,3.35
2017-11-27T07:32:19.429Z,3.33
2017-11-27T07:34:46.939Z,3.34
2017-11-27T07:37:20.146Z,3.29
2017-11-27T07:39:50.460Z,3.32
2017-11-27T07:42:17.979Z,3.31
2017-11-27T07:44:45.500Z,3.35
2017-11-27T07:47:13.029Z,3.37
2017-11-27T07:49:40.560Z,3.36
2017-11-27T07:52:08.083Z,3.42
2017-11-27T07:54:35.604Z,3.45
2017-11-27T07:57:03.121Z,3.60
2017-11-27T07:59:30.653Z,3.77
2017-11-27T08:01:58.179Z,3.82
2017-11-27T08:04:25.696Z,3.86
2017-11-27T08:06:53.215Z,3.80
2017-11-27T08:09:20.730Z,3.79
2017-11-27T08:11:48.257Z,3.84
2017-11-27T08:14:15.777Z,3.93
2017-11-27T08:16:43.294Z,4.15
2017-11-27T08:19:10.803Z,4.42
2017-11-27T08:21:38.325Z,4.53
2017-11-27T08:24:05.864Z,4.62
2017-11-27T08:26:33.379Z,4.93
2017-11-27T08:29:00.910Z,5.12
2017-11-27T08:31:28.432Z,5.32
2017-11-27T08:33:55.951Z,5.21
2017-11-27T08:36:23.469Z,5.31
2017-11-27T08:38:50.987Z,5.48
2017-11-27T08:41:18.503Z,5.94
2017-11-27T08:43:46.026Z,5.73
2017-11-27T08:46:13.546Z,5.85
2017-11-27T08:48:41.073Z,5.57
2017-11-27T08:51:08.597Z,5.37
2017-11-27T08:53:36.119Z,5.32
2017-11-27T08:56:03.634Z,5.47
2017-11-27T08:58:31.147Z,5.60
2017-11-27T09:00:58.684Z,5.47
2017-11-27T09:03:26.211Z,5.29
2017-11-27T09:05:53.727Z,5.13
2017-11-27T09:08:21.239Z,5.22
2017-11-27T09:10:48.752Z,5.18
2017-11-27T09:13:16.269Z,5.34
2017-11-27T09:15:43.796Z,5.61
2017-11-27T09:18:11.314Z,5.77
2017-11-27T09:20:38.840Z,5.74
2017-11-27T09:23:06.360Z,5.80
2017-11-27T09:25:33.874Z,5.78
2017-11-27T09:28:01.386Z,5.83
2017-11-27T09:30:28.908Z,5.71
2017-11-27T09:32:56.435Z,5.71
2017-11-27T09:35:23.950Z,5.97
2017-11-27T09:37:51.503Z,6.01
2017-11-27T09:40:19.017Z,5.93
2017-11-27T09:42:46.545Z,5.62
2017-11-27T09:45:14.053Z,5.62
2017-11-27T09:47:41.566Z,5.68
2017-11-27T09:50:09.083Z,5.64
2017-11-27T09:52:36.600Z,5.64
2017-11-27T09:55:04.120Z,5.60
2017-11-27T09:57:31.639Z,5.79
2017-11-27T09:59:59.150Z,5.91
2017-11-27T10:02:26.663Z,5.80
2017-11-27T10:04:54.197Z,5.89
2017-11-27T10:07:21.736Z,5.83
2017-11-27T10:09:49.248Z,5.84
2017-11-27T10:12:16.765Z,6.01
2017-11-27T10:14:44.288Z,6.08
2017-11-27T10:17:11.808Z,6.15
2017-11-27T10:19:39.352Z,6.26
2017-11-27T10:22:06.876Z,6.30
2017-11-27T10:24:34.426Z,6.37
2017-11-27T10:27:01.938Z,6.53
2017-11-27T10:29:29.468Z,6.63
2017-11-27T10:31:56.988Z,6.74
2017-11-27T10:34:24.508Z,6.92
2017-11-27T10:36:52.031Z,7.04
2017-11-27T10:39:19.560Z,6.95
2017-11-27T10:41:47.071Z,7.04
2017-11-27T10:44:14.587Z,7.03
2017-11-27T10:46:42.102Z,7.16
2017-11-27T10:49:09.616Z,7.21
2017-11-27T10:51:37.168Z,7.16
2017-11-27T10:54:04.678Z,7.19
2017-11-27T10:56:32.196Z,7.18
2017-11-27T10:58:59.709Z,7.05
2017-11-27T11:01:27.219Z,7.12
2017-11-27T11:03:54.744Z,7.26
2017-11-27T11:06:22.258Z,7.30
2017-11-27T11:08:49.772Z,7.33
2017-11-27T11:11:17.288Z,7.38
2017-11-27T11:13:44.806Z,7.51
2017-11-27T11:16:12.319Z,7.44
2017-11-27T11:18:39.836Z,7.33
2017-11-27T11:21:07.350Z,7.35
2017-11-27T11:23:34.872Z,7.45
2017-11-27T11:26:02.388Z,7.16
2017-11-27T11:28:29.930Z,7.21
2017-11-27T11:30:57.450Z,7.11
2017-11-27T11:33:24.970Z,7.16
2017-11-27T11:35:52.483Z,7.24
2017-11-27T11:38:19.997Z,7.34
2017-11-27T11:40:47.512Z,7.50
2017-11-27T11:43:15.032Z,7.28
2017-11-27T11:45:42.541Z,7.15
2017-11-27T11:48:10.053Z,7.22
2017-11-27T11:50:37.565Z,7.12
2017-11-27T11:53:05.076Z,7.09
2017-11-27T11:55:32.586Z,7.08
2017-11-27T11:58:00.112Z,6.90
2017-11-27T12:00:27.643Z,7.07
2017-11-27T12:02:55.175Z,6.85
2017-11-27T12:05:22.711Z,6.86
2017-11-27T12:07:50.232Z,6.88
2017-11-27T12:10:17.752Z,6.94
2017-11-27T12:12:45.279Z,6.95
2017-11-27T12:15:12.796Z,6.87
2017-11-27T12:17:40.321Z,7.04
2017-11-27T12:20:07.832Z,7.00
2017-11-27T12:22:35.351Z,6.95
2017-11-27T12:25:02.869Z,6.75
2017-11-27T12:27:30.381Z,6.97
2017-11-27T12:29:57.898Z,6.80
2017-11-27T12:32:25.425Z,6.64
2017-11-27T12:34:52.941Z,6.77
2017-11-27T12:37:20.454Z,6.74
2017-11-27T12:39:47.960Z,6.87
2017-11-27T12:42:15.511Z,6.79
2017-11-27T12:44:43.023Z,6.72
2017-11-27T12:47:10.545Z,6.78
2017-11-27T12:49:38.065Z,6.87
2017-11-27T12:52:05.580Z,6.76
2017-11-27T12:54:33.120Z,6.70
2017-11-27T12:57:00.633Z,6.74
2017-11-27T12:59:28.139Z,6.65
2017-11-27T13:01:55.651Z,6.70
2017-11-27T13:04:23.153Z,6.69
2017-11-27T13:06:50.670Z,6.76
2017-11-27T13:09:18.177Z,6.81
2017-11-27T13:11:45.703Z,6.84
2017-11-27T13:14:13.221Z,6.66
2017-11-27T13:16:40.735Z,6.61
2017-11-27T13:19:08.250Z,6.62
2017-11-27T13:21:35.765Z,6.67
2017-11-27T13:24:03.279Z,6.56
2017-11-27T13:26:30.792Z,6.60
2017-11-27T13:28:58.312Z,6.55
2017-11-27T13:31:25.828Z,6.55
2017-11-27T13:33:53.343Z,6.49
2017-11-27T13:36:20.859Z,6.55
2017-11-27T13:38:48.386Z,6.45
2017-11-27T13:41:15.898Z,6.43
2017-11-27T13:43:43.407Z,6.36
2017-11-27T13:46:10.934Z,6.39
2017-11-27T13:48:38.443Z,6.34
2017-11-27T13:51:05.969Z,6.35
2017-11-27T13:53:33.479Z,6.20
2017-11-27T13:56:01.400Z,6.13
2017-11-27T13:58:28.956Z,5.97
2017-11-27T14:00:56.476Z,5.92
2017-11-27T14:03:23.988Z,5.84
2017-11-27T14:05:51.495Z,5.67
2017-11-27T14:08:19.001Z,5.76
2017-11-27T14:10:46.514Z,5.56
2017-11-27T14:13:14.019Z,5.42
2017-11-27T14:15:41.544Z,5.42
2017-11-27T14:18:09.096Z,5.47
2017-11-27T14:20:36.602Z,5.50
2017-11-27T14:23:04.122Z,5.25
2017-11-27T14:25:31.636Z,5.35
2017-11-27T14:27:59.177Z,5.38
2017-11-27T14:30:26.712Z,5.36
2017-11-27T14:32:54.232Z,5.34
2017-11-27T14:35:21.755Z,5.33
2017-11-27T14:37:49.885Z,5.11
2017-11-27T14:40:17.481Z,5.08
2017-11-27T14:42:45.009Z,5.04
2017-11-27T14:45:12.523Z,5.05
2017-11-27T14:47:40.055Z,4.95
2017-11-27T14:50:07.572Z,4.90
2017-11-27T14:52:35.091Z,4.94
2017-11-27T14:55:02.614Z,4.94
2017-11-27T14:57:30.123Z,4.85
2017-11-27T14:59:57.640Z,4.82
2017-11-27T15:02:25.209Z,4.83
2017-11-27T15:04:52.730Z,4.79
2017-11-27T15:07:20.230Z,4.79
2017-11-27T15:09:47.747Z,4.80
2017-11-27T15:12:15.276Z,4.80
2017-11-27T15:14:42.807Z,4.80
2017-11-27T15:17:10.319Z,4.78
2017-11-27T15:19:37.844Z,4.73
2017-11-27T15:22:05.359Z,4.75
2017-11-27T15:24:32.885Z,4.70
2017-11-27T15:27:00.407Z,4.74
2017-11-27T15:29:27.918Z,4.67
2017-11-27T15:31:55.433Z,4.71
2017-11-27T15:34:22.972Z,4.61
2017-11-27T15:36:50.482Z,4.65
2017-11-27T15:39:17.999Z,4.58
2017-11-27T15:41:45.517Z,4.63
2017-11-27T15:44:13.032Z,4.66
2017-11-27T15:46:40.547Z,4.55
2017-11-27T15:49:08.066Z,4.59
2017-11-27T15:51:35.579Z,4.62
2017-11-27T15:54:03.096Z,4.57
2017-11-27T15:56:30.619Z,4.60
2017-11-27T15:58:58.135Z,4.64
2017-11-27T16:01:25.651Z,4.62
2017-11-27T16:03:53.168Z,4.49
2017-11-27T16:06:20.685Z,4.59
2017-11-27T16:08:48.203Z,4.51
2017-11-27T16:11:15.721Z,4.52
2017-11-27T16:13:43.853Z,4.49
2017-11-27T16:16:11.447Z,4.58
2017-11-27T16:18:38.962Z,4.58
2017-11-27T16:21:06.479Z,4.52
2017-11-27T16:23:34.005Z,4.53
2017-11-27T16:26:01.523Z,4.44
2017-11-27T16:28:29.038Z,4.50
2017-11-27T16:30:56.551Z,4.51
2017-11-27T16:33:24.066Z,4.47
2017-11-27T16:35:51.583Z,4.45
2017-11-27T16:38:19.096Z,4.47
2017-11-27T16:40:46.611Z,4.45
2017-11-27T16:43:14.135Z,4.43
2017-11-27T16:45:41.860Z,4.47
2017-11-27T16:48:09.393Z,4.46
2017-11-27T16:50:36.918Z,4.52
2017-11-27T16:53:04.438Z,4.51
2017-11-27T16:55:31.984Z,4.49
2017-11-27T16:57:59.518Z,4.50
2017-11-27T17:00:27.040Z,4.53
2017-11-27T17:02:54.589Z,4.49
2017-11-27T17:05:22.102Z,4.47
2017-11-27T17:07:49.609Z,4.49
2017-11-27T17:10:17.124Z,4.46
2017-11-27T17:12:44.975Z,4.44
2017-11-27T17:15:12.492Z,4.47
2017-11-27T17:17:40.815Z,4.49
2017-11-27T17:20:08.332Z,4.50
2017-11-27T17:22:35.844Z,4.48
2017-11-27T17:25:03.362Z,4.55
2017-11-27T17:27:30.877Z,4.47
2017-11-27T17:29:58.422Z,4.50
2017-11-27T17:32:25.945Z,4.54
2017-11-27T17:34:53.473Z,4.52
2017-11-27T17:37:21.033Z,4.63
2017-11-27T17:39:48.561Z,4.62
2017-11-27T17:42:16.086Z,4.56
2017-11-27T17:44:43.629Z,4.60
2017-11-27T17:47:11.142Z,4.55
2017-11-27T17:49:38.662Z,4.58
2017-11-27T17:52:06.186Z,4.57
2017-11-27T17:54:33.705Z,4.60
2017-11-27T17:57:01.239Z,4.61
2017-11-27T17:59:28.762Z,4.68
2017-11-27T18:01:56.281Z,4.74
2017-11-27T18:04:23.805Z,4.67
2017-11-27T18:06:51.324Z,4.74
2017-11-27T18:09:18.861Z,4.71
2017-11-27T18:11:46.394Z,4.70
2017-11-27T18:14:13.908Z,4.76
2017-11-27T18:16:41.420Z,4.73
2017-11-27T18:19:08.963Z,4.77
2017-11-27T18:21:36.474Z,4.78
2017-11-27T18:24:03.988Z,4.80
2017-11-27T18:26:31.508Z,4.85
2017-11-27T18:28:59.023Z,4.85
2017-11-27T18:31:26.542Z,4.87
2017-11-27T18:33:54.060Z,4.87
2017-11-27T18:36:21.567Z,4.92
2017-11-27T18:38:49.080Z,4.93
2017-11-27T18:41:16.592Z,4.96
2017-11-27T18:43:44.111Z,4.92
2017-11-27T18:46:11.630Z,4.94
2017-11-27T18:48:39.143Z,4.94
2017-11-27T18:51:06.675Z,5.00
2017-11-27T18:53:34.189Z,5.03
2017-11-27T18:56:01.704Z,5.04
2017-11-27T18:58:29.225Z,5.03
2017-11-27T19:00:56.753Z,5.06
2017-11-27T19:03:24.270Z,5.05
2017-11-27T19:05:51.788Z,5.05
2017-11-27T19:08:19.304Z,5.07
2017-11-27T19:10:46.811Z,5.06
2017-11-27T19:13:14.342Z,5.08
2017-11-27T19:15:41.882Z,5.14
2017-11-27T19:18:09.429Z,5.15
2017-11-27T19:20:37.076Z,5.09
2017-11-27T19:23:04.594Z,5.14
2017-11-27T19:25:32.106Z,5.13
2017-11-27T19:27:59.623Z,5.14
2017-11-27T19:30:27.139Z,5.20
2017-11-27T19:32:54.660Z,5.15
2017-11-27T19:35:22.228Z,5.16
2017-11-27T19:37:49.748Z,5.20
2017-11-27T19:40:17.329Z,5.24
2017-11-27T19:42:44.880Z,5.24
2017-11-27T19:45:12.417Z,5.23
2017-11-27T19:47:40.003Z,5.27
2017-11-27T19:50:07.634Z,5.21
2017-11-27T19:52:35.158Z,5.29
2017-11-27T19:55:02.702Z,5.25
2017-11-27T19:57:30.223Z,5.28
2017-11-27T19:59:57.728Z,5.29
2017-11-27T20:02:25.241Z,5.31
2017-11-27T20:04:52.759Z,5.30
2017-11-27T20:07:20.281Z,5.34
2017-11-27T20:09:47.801Z,5.32
2017-11-27T20:12:15.316Z,5.35
2017-11-27T20:14:42.826Z,5.36
2017-11-27T20:17:10.344Z,5.35
2017-11-27T20:19:37.859Z,5.34
2017-11-27T20:22:05.371Z,5.35
2017-11-27T20:24:32.889Z,5.38
2017-11-27T20:27:00.406Z,5.42
2017-11-27T20:29:27.925Z,5.43
2017-11-27T20:31:55.487Z,5.41
2017-11-27T20:34:22.977Z,5.43
2017-11-27T20:36:50.494Z,5.46
2017-11-27T20:39:18.064Z,5.59
2017-11-27T20:41:45.580Z,5.44
2017-11-27T20:44:13.104Z,5.48
2017-11-27T20:46:40.625Z,5.46
2017-11-27T20:49:08.148Z,5.45
2017-11-27T20:51:35.672Z,5.52
2017-11-27T20:54:03.197Z,5.51
2017-11-27T20:56:30.727Z,5.53
2017-11-27T20:58:58.256Z,5.55
2017-11-27T21:01:25.782Z,5.56
2017-11-27T21:03:53.325Z,5.57
2017-11-27T21:06:20.834Z,5.53
2017-11-27T21:08:48.357Z,5.56
2017-11-27T21:11:15.872Z,5.62
2017-11-27T21:13:43.410Z,5.59
2017-11-27T21:16:10.929Z,5.58
2017-11-27T21:18:38.448Z,5.65
2017-11-27T21:21:05.959Z,5.62
2017-11-27T21:23:33.485Z,5.64
2017-11-27T21:26:01.001Z,5.65
2017-11-27T21:28:28.531Z,5.65
2017-11-27T21:30:56.052Z,5.69
2017-11-27T21:33:23.576Z,5.68
2017-11-27T21:35:51.094Z,5.73
2017-11-27T21:38:18.613Z,5.72
2017-11-27T21:40:46.139Z,5.69
2017-11-27T21:43:13.657Z,5.73
2017-11-27T21:45:41.393Z,5.73
2017-11-27T21:48:08.949Z,5.75
2017-11-27T21:50:36.466Z,5.72
2017-11-27T21:53:03.978Z,5.78
2017-11-27T21:55:31.499Z,5.73
2017-11-27T21:57:59.022Z,5.76
2017-11-27T22:00:26.547Z,5.75
2017-11-27T22:02:54.077Z,5.80
2017-11-27T22:05:21.586Z,5.81
2017-11-27T22:07:49.109Z,5.84
2017-11-27T22:10:16.643Z,5.83
2017-11-27T22:12:44.172Z,5.85
2017-11-27T22:15:11.693Z,5.86
2017-11-27T22:17:39.209Z,5.87
2017-11-27T22:20:06.720Z,5.92
2017-11-27T22:22:34.236Z,5.90
2017-11-27T22:25:01.760Z,5.93
2017-11-27T22:27:29.276Z,5.93
2017-11-27T22:29:56.809Z,5.93
2017-11-27T22:32:24.321Z,5.95
2017-11-27T22:34:51.863Z,5.93
2017-11-27T22:37:19.391Z,5.97
2017-11-27T22:39:46.915Z,5.97
2017-11-27T22:42:14.451Z,5.98
2017-11-27T22:44:42.032Z,5.92
2017-11-27T22:47:09.562Z,5.91
2017-11-27T22:49:37.078Z,5.99
2017-11-27T22:52:04.599Z,5.94
2017-11-27T22:54:32.140Z,5.98
2017-11-27T22:56:59.655Z,5.97
2017-11-27T22:59:27.183Z,5.96
2017-11-27T23:01:54.699Z,5.93
2017-11-27T23:04:22.215Z,5.97
2017-11-27T23:06:49.723Z,5.96
2017-11-27T23:09:17.247Z,5.96
2017-11-27T23:11:44.768Z,5.96
2017-11-27T23:14:12.287Z,5.96
2017-11-27T23:16:39.828Z,5.95
2017-11-27T23:19:07.350Z,5.97
2017-11-27T23:21:34.867Z,5.92
2017-11-27T23:24:02.388Z,5.98
2017-11-27T23:26:29.894Z,5.99
2017-11-27T23:28:57.402Z,5.96
2017-11-27T23:31:24.912Z,5.97
2017-11-27T23:33:52.422Z,5.96
2017-11-27T23:36:19.941Z,5.98
2017-11-27T23:38:47.455Z,6.02
2017-11-27T23:41:14.978Z,5.98
2017-11-27T23:43:42.500Z,5.98
2017-11-27T23:46:10.013Z,5.96
2017-11-27T23:48:37.522Z,5.98
2017-11-27T23:51:05.029Z,6.00
2017-11-27T23:53:32.542Z,5.95
2017-11-27T23:56:00.046Z,6.01
2017-11-27T23:58:27.560Z,6.02
